createdAt,value
2018-07-30T00:02:16.394Z,97.20
2018-07-30T00:04:45.511Z,97.30
2018-07-30T00:07:14.494Z,97.30
2018-07-30T00:09:44.719Z,97.20
2018-07-30T00:12:13.705Z,97.40
2018-07-30T00:14:43.165Z,97.30
2018-07-30T00:17:12.242Z,97.50
2018-07-30T00:19:41.244Z,97.40
2018-07-30T00:22:10.323Z,97.40
2018-07-30T00:24:39.310Z,97.40
2018-07-30T00:27:08.281Z,97.20
2018-07-30T00:29:38.319Z,96.70
2018-07-30T00:32:07.466Z,96.80
2018-07-30T00:34:36.451Z,97.20
2018-07-30T00:37:05.682Z,97.50
2018-07-30T00:39:34.691Z,97.40
2018-07-30T00:42:03.662Z,97.50
2018-07-30T00:44:32.683Z,97.50
2018-07-30T00:47:01.689Z,97.10
2018-07-30T00:49:30.650Z,97.00
2018-07-30T00:51:59.634Z,97.00
2018-07-30T00:54:28.619Z,97.00
2018-07-30T00:56:58.242Z,96.90
2018-07-30T00:59:27.153Z,97.10
2018-07-30T01:01:56.198Z,97.20
2018-07-30T01:04:26.341Z,97.00
2018-07-30T01:06:55.306Z,97.00
2018-07-30T01:09:24.309Z,97.40
2018-07-30T01:11:57.747Z,97.50
2018-07-30T01:14:27.156Z,97.40
2018-07-30T01:16:56.281Z,97.60
2018-07-30T01:19:25.365Z,97.80
2018-07-30T01:21:55.703Z,98.00
2018-07-30T01:24:25.383Z,97.80
2018-07-30T01:26:55.673Z,97.80
2018-07-30T01:29:24.715Z,97.70
2018-07-30T01:31:53.687Z,97.80
2018-07-30T01:34:22.722Z,97.80
2018-07-30T01:36:51.731Z,97.70
2018-07-30T01:39:20.717Z,97.50
2018-07-30T01:41:50.164Z,97.50
2018-07-30T01:44:19.638Z,97.40
2018-07-30T01:46:48.653Z,97.40
2018-07-30T01:49:17.681Z,97.50
2018-07-30T01:51:48.062Z,97.20
2018-07-30T01:54:17.030Z,97.00
2018-07-30T01:56:46.084Z,97.00
2018-07-30T01:59:15.085Z,96.90
2018-07-30T02:01:44.057Z,97.10
2018-07-30T02:04:13.002Z,97.20
2018-07-30T02:06:42.006Z,97.40
2018-07-30T02:09:11.447Z,97.50
2018-07-30T02:11:40.486Z,97.60
2018-07-30T02:14:09.459Z,97.60
2018-07-30T02:16:38.454Z,97.60
2018-07-30T02:19:07.487Z,97.80
2018-07-30T02:21:36.549Z,97.80
2018-07-30T02:24:07.400Z,97.60
2018-07-30T02:26:36.358Z,97.50
2018-07-30T02:29:05.341Z,97.50
2018-07-30T02:31:34.661Z,97.20
2018-07-30T02:34:04.908Z,97.20
2018-07-30T02:36:33.938Z,97.30
2018-07-30T02:39:09.486Z,97.60
2018-07-30T02:41:39.583Z,97.60
2018-07-30T02:44:08.571Z,97.20
2018-07-30T02:46:39.695Z,96.90
2018-07-30T02:49:09.790Z,97.00
2018-07-30T02:51:38.761Z,97.20
2018-07-30T02:54:07.852Z,97.50
2018-07-30T02:56:36.877Z,97.40
2018-07-30T02:59:05.876Z,97.40
2018-07-30T03:01:35.003Z,97.50
2018-07-30T03:04:03.975Z,97.70
2018-07-30T03:06:32.986Z,97.80
2018-07-30T03:09:01.962Z,97.90
2018-07-30T03:11:30.932Z,97.80
2018-07-30T03:13:59.890Z,97.60
2018-07-30T03:16:28.874Z,97.70
2018-07-30T03:18:57.845Z,97.80
2018-07-30T03:21:26.877Z,98.10
2018-07-30T03:23:55.853Z,98.20
2018-07-30T03:26:24.882Z,98.30
2018-07-30T03:28:53.867Z,97.90
2018-07-30T03:31:22.918Z,97.50
2018-07-30T03:33:51.911Z,97.30
2018-07-30T03:36:20.885Z,97.30
2018-07-30T03:38:49.981Z,97.90
2018-07-30T03:41:20.046Z,97.70
2018-07-30T03:43:50.595Z,97.80
2018-07-30T03:46:19.592Z,97.90
2018-07-30T03:48:48.639Z,97.90
2018-07-30T03:51:17.599Z,97.50
2018-07-30T03:53:48.723Z,97.90
2018-07-30T03:56:17.745Z,98.00
2018-07-30T03:58:46.710Z,97.60
2018-07-30T04:01:15.698Z,97.60
2018-07-30T04:03:44.667Z,98.00
2018-07-30T04:06:14.529Z,98.20
2018-07-30T04:08:44.385Z,97.80
2018-07-30T04:11:13.368Z,97.80
2018-07-30T04:13:42.785Z,97.90
2018-07-30T04:16:11.778Z,98.00
2018-07-30T04:18:40.778Z,98.00
2018-07-30T04:21:09.798Z,98.10
2018-07-30T04:23:38.813Z,98.10
2018-07-30T04:26:08.357Z,98.20
2018-07-30T04:28:37.413Z,98.00
2018-07-30T04:31:06.553Z,97.80
2018-07-30T04:33:35.540Z,98.00
2018-07-30T04:36:04.662Z,97.70
2018-07-30T04:38:33.670Z,97.40
2018-07-30T04:41:02.751Z,97.40
2018-07-30T04:43:31.773Z,97.30
2018-07-30T04:46:00.777Z,97.40
2018-07-30T04:48:29.801Z,97.60
2018-07-30T04:50:58.818Z,97.20
2018-07-30T04:53:27.841Z,97.20
2018-07-30T04:55:56.847Z,96.90
2018-07-30T04:58:27.255Z,96.60
2018-07-30T05:00:56.291Z,96.20
2018-07-30T05:03:25.340Z,96.30
2018-07-30T05:05:54.322Z,96.60
2018-07-30T05:08:23.356Z,96.70
2018-07-30T05:10:52.359Z,96.60
2018-07-30T05:13:21.346Z,96.30
2018-07-30T05:15:50.424Z,96.30
2018-07-30T05:18:19.519Z,95.80
2018-07-30T05:20:48.733Z,95.50
2018-07-30T05:23:17.790Z,95.30
2018-07-30T05:25:46.854Z,95.50
2018-07-30T05:28:15.903Z,95.40
2018-07-30T05:30:44.933Z,95.00
2018-07-30T05:33:14.028Z,94.60
2018-07-30T05:35:43.043Z,94.20
2018-07-30T05:38:12.107Z,94.30
2018-07-30T05:40:41.201Z,93.80
2018-07-30T05:43:10.271Z,93.90
2018-07-30T05:45:39.313Z,93.80
2018-07-30T05:48:08.367Z,93.70
2018-07-30T05:50:37.376Z,93.50
2018-07-30T05:53:07.015Z,93.10
2018-07-30T05:55:36.065Z,93.90
2018-07-30T06:12:58.534Z,99.90
2018-07-30T06:15:27.603Z,87.90
2018-07-30T06:17:56.674Z,87.10
2018-07-30T06:20:25.806Z,99.90
2018-07-30T06:22:55.218Z,99.90
2018-07-30T06:25:25.132Z,99.90
2018-07-30T06:27:55.197Z,99.90
2018-07-30T06:30:24.204Z,86.90
2018-07-30T06:32:53.227Z,86.30
2018-07-30T06:35:22.259Z,86.30
2018-07-30T06:37:51.363Z,99.90
2018-07-30T06:40:20.445Z,96.50
2018-07-30T06:42:49.475Z,86.70
2018-07-30T06:45:18.517Z,87.10
2018-07-30T06:47:47.578Z,86.80
2018-07-30T06:50:16.948Z,85.10
2018-07-30T06:52:45.969Z,85.10
2018-07-30T06:55:14.960Z,83.70
2018-07-30T06:57:43.992Z,83.90
2018-07-30T07:00:13.024Z,83.50
2018-07-30T07:02:42.050Z,85.20
2018-07-30T07:05:11.630Z,82.30
2018-07-30T07:10:10.839Z,81.10
2018-07-30T07:12:39.933Z,80.70
2018-07-30T07:15:12.003Z,81.00
2018-07-30T07:17:41.350Z,97.90
2018-07-30T07:20:10.408Z,81.00
2018-07-30T07:22:39.542Z,79.00
2018-07-30T07:25:08.791Z,78.10
2018-07-30T07:27:37.815Z,77.90
2018-07-30T07:30:08.056Z,76.90
2018-07-30T07:32:37.098Z,76.80
2018-07-30T07:35:06.438Z,77.00
2018-07-30T07:37:35.569Z,76.10
2018-07-30T07:40:05.459Z,76.00
2018-07-30T07:42:34.570Z,76.30
2018-07-30T07:45:03.766Z,74.90
2018-07-30T07:47:32.781Z,73.00
2018-07-30T07:50:01.904Z,73.40
2018-07-30T07:52:30.987Z,72.50
2018-07-30T07:55:02.091Z,99.90
2018-07-30T07:57:31.089Z,99.90
2018-07-30T08:04:58.350Z,54.70
2018-07-30T08:07:27.380Z,53.20
2018-07-30T08:09:56.597Z,49.10
2018-07-30T08:12:25.607Z,43.60
2018-07-30T08:14:54.607Z,41.00
2018-07-30T08:17:23.611Z,38.80
2018-07-30T08:19:52.647Z,35.60
2018-07-30T08:22:21.715Z,35.60
2018-07-30T08:24:50.836Z,35.90
2018-07-30T08:27:19.862Z,36.40
2018-07-30T08:29:48.890Z,36.90
2018-07-30T08:32:17.914Z,37.20
2018-07-30T08:34:46.947Z,38.30
2018-07-30T08:37:15.997Z,39.60
2018-07-30T08:39:45.010Z,40.70
2018-07-30T08:42:14.130Z,41.00
2018-07-30T08:44:43.227Z,41.40
2018-07-30T08:47:12.230Z,42.00
2018-07-30T08:49:41.255Z,42.10
2018-07-30T08:52:10.243Z,41.70
2018-07-30T08:54:39.306Z,41.40
2018-07-30T08:57:08.311Z,41.00
2018-07-30T08:59:37.442Z,40.60
2018-07-30T09:02:06.578Z,39.10
2018-07-30T09:04:35.706Z,40.00
2018-07-30T09:07:05.206Z,39.90
2018-07-30T09:09:34.303Z,38.80
2018-07-30T09:12:03.364Z,38.70
2018-07-30T09:14:32.454Z,37.40
2018-07-30T09:17:01.457Z,35.40
2018-07-30T09:19:30.508Z,34.90
2018-07-30T09:21:59.567Z,36.00
2018-07-30T09:24:28.628Z,36.90
2018-07-30T09:26:57.643Z,37.60
2018-07-30T09:29:26.716Z,40.20
2018-07-30T09:31:55.838Z,40.60
2018-07-30T09:34:24.859Z,39.80
2018-07-30T09:36:53.858Z,39.20
2018-07-30T09:39:23.006Z,40.00
2018-07-30T09:41:51.947Z,38.30
2018-07-30T09:46:49.592Z,38.00
2018-07-30T09:49:18.604Z,36.50
2018-07-30T09:51:47.614Z,35.80
2018-07-30T09:54:16.622Z,34.60
2018-07-30T09:56:45.651Z,34.60
2018-07-30T09:59:14.670Z,34.60
2018-07-30T10:01:43.785Z,34.10
2018-07-30T10:06:41.875Z,33.90
2018-07-30T10:09:11.979Z,32.60
2018-07-30T10:11:41.116Z,30.40
2018-07-30T10:14:10.134Z,30.00
2018-07-30T10:16:39.158Z,30.40
2018-07-30T10:19:08.196Z,32.10
2018-07-30T10:21:37.242Z,30.80
2018-07-30T10:24:06.236Z,31.20
2018-07-30T10:26:35.261Z,31.80
2018-07-30T10:29:04.303Z,33.10
2018-07-30T10:31:33.430Z,32.70
2018-07-30T10:34:02.446Z,32.80
2018-07-30T10:36:31.471Z,31.80
2018-07-30T10:44:00.602Z,29.90
2018-07-30T10:46:29.716Z,31.80
2018-07-30T10:48:58.948Z,42.70
2018-07-30T10:51:28.030Z,36.20
2018-07-30T10:53:57.030Z,37.80
2018-07-30T10:56:26.111Z,37.70
2018-07-30T10:58:55.137Z,38.00
2018-07-30T11:01:24.203Z,38.50
2018-07-30T11:03:53.247Z,38.70
2018-07-30T11:06:22.302Z,38.60
2018-07-30T11:08:51.306Z,39.40
2018-07-30T11:11:20.348Z,39.20
2018-07-30T11:13:49.375Z,39.80
2018-07-30T11:16:18.434Z,40.30
2018-07-30T11:18:51.163Z,39.00
2018-07-30T11:21:20.218Z,40.00
2018-07-30T11:23:49.260Z,40.20
2018-07-30T11:26:18.300Z,41.10
2018-07-30T11:28:47.315Z,42.00
2018-07-30T11:31:16.339Z,42.50
2018-07-30T11:33:45.936Z,43.00
2018-07-30T11:36:15.044Z,43.10
2018-07-30T11:48:39.146Z,88.90
2018-07-30T11:51:08.286Z,43.10
2018-07-30T11:53:37.276Z,42.50
2018-07-30T11:56:06.295Z,44.00
2018-07-30T11:58:35.287Z,43.50
2018-07-30T12:01:04.628Z,42.30
2018-07-30T12:03:33.627Z,41.50
2018-07-30T12:06:02.706Z,80.90
2018-07-30T12:08:31.771Z,41.80
2018-07-30T12:11:00.830Z,41.80
2018-07-30T12:13:29.935Z,40.90
2018-07-30T12:18:27.614Z,41.00
2018-07-30T12:20:56.747Z,41.40
2018-07-30T12:23:25.812Z,42.40
2018-07-30T12:30:53.268Z,85.60
2018-07-30T12:35:50.974Z,71.40
2018-07-30T12:45:47.297Z,38.80
2018-07-30T12:48:16.358Z,39.20
2018-07-30T12:50:45.497Z,39.10
2018-07-30T12:53:14.582Z,40.20
2018-07-30T12:55:43.611Z,40.00
2018-07-30T12:58:12.682Z,40.20
2018-07-30T13:00:41.731Z,39.60
2018-07-30T13:03:10.925Z,40.20
2018-07-30T13:05:39.980Z,39.80
2018-07-30T13:08:09.088Z,39.30
2018-07-30T13:10:38.241Z,38.90
2018-07-30T13:13:07.307Z,39.50
2018-07-30T13:15:36.448Z,39.90
2018-07-30T13:18:06.161Z,39.80
2018-07-30T13:20:35.229Z,40.40
2018-07-30T13:23:04.358Z,41.20
2018-07-30T13:25:33.376Z,41.60
2018-07-30T13:28:02.382Z,42.20
2018-07-30T13:30:31.424Z,41.80
2018-07-30T13:33:00.410Z,41.00
2018-07-30T13:35:29.401Z,41.70
2018-07-30T13:37:58.411Z,41.00
2018-07-30T13:40:27.406Z,39.90
2018-07-30T13:42:56.410Z,39.60
2018-07-30T13:45:25.394Z,41.10
2018-07-30T13:47:54.430Z,40.70
2018-07-30T13:50:23.481Z,41.10
2018-07-30T13:52:52.470Z,39.50
2018-07-30T13:55:21.465Z,39.90
2018-07-30T13:57:50.751Z,40.30
2018-07-30T14:00:19.945Z,38.70
2018-07-30T14:02:48.976Z,39.70
2018-07-30T14:05:17.982Z,40.00
2018-07-30T14:07:47.046Z,39.00
2018-07-30T14:10:16.061Z,38.30
2018-07-30T14:12:45.147Z,38.30
2018-07-30T14:15:14.175Z,37.40
2018-07-30T14:17:43.223Z,37.70
2018-07-30T14:20:12.243Z,38.10
2018-07-30T14:22:41.273Z,38.10
2018-07-30T14:25:10.325Z,38.50
2018-07-30T14:27:39.414Z,39.00
2018-07-30T14:30:09.220Z,39.20
2018-07-30T14:32:38.279Z,38.80
2018-07-30T14:35:07.295Z,37.90
2018-07-30T14:37:36.342Z,37.40
2018-07-30T14:40:11.667Z,37.00
2018-07-30T14:45:11.440Z,39.60
2018-07-30T14:47:40.860Z,39.10
2018-07-30T14:50:10.446Z,38.00
2018-07-30T14:52:39.476Z,37.80
2018-07-30T14:55:09.489Z,37.50
2018-07-30T14:57:38.560Z,38.10
2018-07-30T15:00:08.826Z,36.90
2018-07-30T15:02:38.150Z,36.30
2018-07-30T15:05:07.310Z,36.20
2018-07-30T15:07:36.512Z,37.70
2018-07-30T15:10:05.695Z,36.40
2018-07-30T15:12:34.928Z,36.50
2018-07-30T15:15:04.743Z,36.10
2018-07-30T15:17:34.010Z,36.30
2018-07-30T15:20:03.239Z,36.60
2018-07-30T15:22:32.446Z,36.40
2018-07-30T15:25:01.567Z,38.00
2018-07-30T15:27:30.790Z,36.00
2018-07-30T15:29:59.890Z,35.70
2018-07-30T15:32:29.327Z,35.70
2018-07-30T15:34:58.357Z,35.90
2018-07-30T15:37:27.524Z,36.60
2018-07-30T15:39:57.497Z,35.30
2018-07-30T15:42:26.650Z,35.70
2018-07-30T15:44:56.015Z,36.60
2018-07-30T15:47:25.040Z,36.40
2018-07-30T15:49:54.294Z,37.20
2018-07-30T15:52:23.438Z,38.20
2018-07-30T15:54:52.550Z,38.80
2018-07-30T15:57:21.851Z,37.90
2018-07-30T15:59:51.049Z,37.60
2018-07-30T16:02:20.117Z,39.30
2018-07-30T16:04:49.277Z,40.80
2018-07-30T16:07:18.294Z,39.30
2018-07-30T16:09:47.411Z,40.40
2018-07-30T16:12:16.435Z,42.10
2018-07-30T16:14:45.694Z,40.60
2018-07-30T16:17:14.713Z,40.20
2018-07-30T16:19:43.752Z,40.90
2018-07-30T16:22:12.789Z,43.00
2018-07-30T16:24:41.796Z,44.50
2018-07-30T16:27:10.780Z,44.40
2018-07-30T16:29:39.810Z,44.80
2018-07-30T16:32:08.847Z,46.40
2018-07-30T16:34:37.875Z,47.90
2018-07-30T16:37:06.903Z,48.40
2018-07-30T16:39:35.912Z,49.00
2018-07-30T16:42:05.015Z,49.20
2018-07-30T16:44:34.582Z,50.20
2018-07-30T16:47:07.403Z,50.60
2018-07-30T16:49:36.535Z,50.70
2018-07-30T16:52:05.590Z,51.90
2018-07-30T16:54:34.639Z,52.20
2018-07-30T16:57:03.679Z,52.40
2018-07-30T16:59:32.747Z,52.60
2018-07-30T17:02:01.780Z,52.70
2018-07-30T17:04:30.809Z,52.70
2018-07-30T17:06:59.824Z,52.90
2018-07-30T17:09:28.872Z,53.80
2018-07-30T17:11:58.014Z,54.50
2018-07-30T17:14:27.025Z,54.70
2018-07-30T17:16:56.053Z,55.30
2018-07-30T17:19:25.120Z,55.80
2018-07-30T17:21:54.156Z,56.20
2018-07-30T17:24:23.212Z,55.80
2018-07-30T17:26:52.220Z,55.30
2018-07-30T17:29:21.244Z,54.00
2018-07-30T17:31:50.251Z,53.60
2018-07-30T17:34:19.295Z,54.30
2018-07-30T17:36:48.353Z,55.70
2018-07-30T17:39:17.386Z,56.00
2018-07-30T17:41:46.387Z,55.20
2018-07-30T17:44:15.410Z,56.40
2018-07-30T17:46:44.419Z,57.20
2018-07-30T17:49:13.513Z,57.40
2018-07-30T17:51:44.071Z,57.70
2018-07-30T17:54:13.947Z,57.60
2018-07-30T17:56:43.981Z,57.20
2018-07-30T17:59:14.079Z,56.70
2018-07-30T18:01:43.113Z,57.60
2018-07-30T18:04:12.514Z,58.20
2018-07-30T18:06:41.617Z,57.90
2018-07-30T18:09:11.771Z,58.40
2018-07-30T18:11:40.839Z,58.40
2018-07-30T18:14:09.839Z,58.20
2018-07-30T18:16:39.321Z,58.80
2018-07-30T18:19:09.668Z,59.30
2018-07-30T18:21:38.745Z,59.90
2018-07-30T18:26:36.593Z,60.80
2018-07-30T18:29:05.614Z,60.10
2018-07-30T18:31:34.661Z,60.90
2018-07-30T18:34:03.704Z,62.60
2018-07-30T18:36:32.752Z,63.40
2018-07-30T18:39:01.770Z,65.20
2018-07-30T18:41:30.802Z,63.80
2018-07-30T18:44:04.049Z,63.30
2018-07-30T18:46:33.095Z,63.50
2018-07-30T18:49:02.117Z,64.00
2018-07-30T18:51:31.185Z,92.70
2018-07-30T18:54:00.229Z,61.90
2018-07-30T18:56:32.124Z,62.80
2018-07-30T18:59:01.203Z,63.40
2018-07-30T19:01:30.259Z,63.70
2018-07-30T19:03:59.390Z,64.20
2018-07-30T19:06:28.428Z,65.50
2018-07-30T19:08:57.616Z,66.80
2018-07-30T19:11:26.643Z,66.60
2018-07-30T19:13:55.675Z,67.30
2018-07-30T19:16:24.920Z,67.10
2018-07-30T19:18:54.141Z,68.00
2018-07-30T19:21:23.215Z,68.50
2018-07-30T19:23:52.210Z,67.60
2018-07-30T19:26:21.265Z,67.30
2018-07-30T19:28:50.295Z,68.70
2018-07-30T19:33:48.023Z,69.20
2018-07-30T19:36:17.057Z,70.30
2018-07-30T19:38:47.340Z,70.80
2018-07-30T19:41:16.377Z,71.60
2018-07-30T19:43:45.384Z,70.30
2018-07-30T19:46:14.414Z,71.40
2018-07-30T19:48:43.667Z,72.80
2018-07-30T19:51:12.936Z,72.50
2018-07-30T19:53:41.932Z,72.20
2018-07-30T19:56:11.304Z,71.70
2018-07-30T19:58:40.423Z,73.50
2018-07-30T20:01:10.282Z,73.90
2018-07-30T20:03:40.634Z,74.30
2018-07-30T20:06:09.608Z,74.70
2018-07-30T20:08:40.743Z,75.30
2018-07-30T20:11:11.125Z,75.60
2018-07-30T20:13:40.171Z,77.50
2018-07-30T20:16:09.309Z,76.90
2018-07-30T20:18:38.487Z,76.90
2018-07-30T20:21:07.764Z,78.40
2018-07-30T20:23:36.912Z,78.20
2018-07-30T20:26:05.989Z,78.40
2018-07-30T20:28:35.045Z,79.20
2018-07-30T20:31:04.228Z,79.60
2018-07-30T20:33:33.246Z,80.50
2018-07-30T20:36:02.236Z,81.00
2018-07-30T20:38:31.264Z,81.80
2018-07-30T20:41:00.301Z,82.00
2018-07-30T20:43:29.517Z,82.90
2018-07-30T20:45:59.527Z,81.90
2018-07-30T20:48:28.635Z,81.30
2018-07-30T20:50:57.720Z,81.70
2018-07-30T20:53:26.751Z,82.20
2018-07-30T20:56:01.954Z,83.80
2018-07-30T20:58:35.222Z,82.80
2018-07-30T21:01:05.235Z,83.60
2018-07-30T21:03:34.316Z,85.30
2018-07-30T21:06:03.456Z,84.20
2018-07-30T21:08:32.539Z,84.90
2018-07-30T21:11:01.547Z,84.20
2018-07-30T21:13:30.605Z,85.60
2018-07-30T21:15:59.609Z,85.30
2018-07-30T21:18:28.674Z,85.60
2018-07-30T21:20:57.707Z,86.30
2018-07-30T21:23:26.834Z,86.90
2018-07-30T21:25:55.866Z,87.20
2018-07-30T21:28:24.884Z,86.40
2018-07-30T21:30:53.900Z,86.50
2018-07-30T21:33:22.926Z,86.60
2018-07-30T21:35:51.988Z,86.50
2018-07-30T21:38:21.038Z,87.10
2018-07-30T21:40:50.083Z,87.10
2018-07-30T21:43:19.189Z,88.20
2018-07-30T21:45:48.211Z,89.50
2018-07-30T21:48:17.285Z,90.00
2018-07-30T21:50:47.050Z,89.80
2018-07-30T21:53:16.091Z,88.40
2018-07-30T21:55:46.907Z,88.40
2018-07-30T21:58:15.949Z,88.00
2018-07-30T22:00:50.242Z,88.40
2018-07-30T22:03:19.316Z,88.00
2018-07-30T22:05:52.611Z,88.30
2018-07-30T22:08:21.751Z,88.80
2018-07-30T22:10:50.955Z,89.50
2018-07-30T22:13:20.000Z,90.00
2018-07-30T22:15:49.099Z,90.20
2018-07-30T22:18:18.544Z,90.10
2018-07-30T22:20:47.629Z,90.00
2018-07-30T22:23:16.745Z,90.30
2018-07-30T22:25:45.791Z,90.70
2018-07-30T22:28:14.830Z,90.90
2018-07-30T22:30:43.953Z,90.80
2018-07-30T22:33:13.059Z,90.80
2018-07-30T22:35:42.090Z,90.80
2018-07-30T22:38:11.154Z,91.10
2018-07-30T22:40:40.267Z,90.80
2018-07-30T22:43:09.921Z,90.90
2018-07-30T22:45:39.050Z,91.00
2018-07-30T22:48:08.130Z,91.10
2018-07-30T22:50:37.158Z,91.20
2018-07-30T22:53:06.203Z,91.30
2018-07-30T22:55:35.266Z,91.50
2018-07-30T22:58:04.361Z,92.10
2018-07-30T23:00:33.457Z,92.50
2018-07-30T23:03:03.558Z,92.00
2018-07-30T23:05:32.580Z,91.70
2018-07-30T23:08:02.416Z,91.60
2018-07-30T23:10:31.437Z,91.80
2018-07-30T23:13:00.504Z,92.10
2018-07-30T23:15:29.547Z,92.40
2018-07-30T23:17:59.711Z,92.70
2018-07-30T23:20:28.780Z,92.60
2018-07-30T23:22:57.873Z,92.50
2018-07-30T23:25:26.947Z,92.40
2018-07-30T23:27:55.975Z,92.20
2018-07-30T23:32:54.004Z,92.90
2018-07-30T23:35:23.059Z,93.00
2018-07-30T23:37:52.176Z,92.90
2018-07-30T23:40:21.219Z,93.50
2018-07-30T23:42:50.226Z,93.40
2018-07-30T23:45:19.258Z,92.50
2018-07-30T23:47:48.303Z,92.40
2018-07-30T23:50:18.558Z,92.30
2018-07-30T23:52:47.588Z,92.50
2018-07-30T23:55:16.700Z,92.60
2018-07-30T23:57:45.746Z,92.70
